sensor_id;sensor_type;location;lat;lon;timestamp;pressure;altitude;pressure_sealevel;temperature;humidity
14818;BME280;7500;57.698;11.986;2022-07-23T00:01:39;101469.72;;;19.43;100.00
14818;BME280;7500;57.698;11.986;2022-07-23T00:04:07;101474.34;;;19.41;100.00
14818;BME280;7500;57.698;11.986;2022-07-23T00:06:34;101471.31;;;19.46;100.00
14818;BME280;7500;57.698;11.986;2022-07-23T00:09:00;101475.81;;;19.45;100.00
14818;BME280;7500;57.698;11.986;2022-07-23T00:11:27;101480.19;;;19.46;100.00
14818;BME280;7500;57.698;11.986;2022-07-23T00:13:54;101480.44;;;19.43;100.00
14818;BME280;7500;57.698;11.986;2022-07-23T00:16:24;101485.56;;;19.46;100.00
14818;BME280;7500;57.698;11.986;2022-07-23T00:18:51;101484.94;;;19.43;100.00
14818;BME280;7500;57.698;11.986;2022-07-23T00:21:17;101468.97;;;19.41;100.00
14818;BME280;7500;57.698;11.986;2022-07-23T00:23:45;101473.13;;;19.35;100.00
14818;BME280;7500;57.698;11.986;2022-07-23T00:26:12;101475.78;;;19.35;100.00
14818;BME280;7500;57.698;11.986;2022-07-23T00:28:39;101469.69;;;19.33;100.00
14818;BME280;7500;57.698;11.986;2022-07-23T00:31:06;101465.63;;;19.27;100.00
14818;BME280;7500;57.698;11.986;2022-07-23T00:33:34;101474.88;;;19.23;100.00
14818;BME280;7500;57.698;11.986;2022-07-23T00:36:01;101477.91;;;19.19;100.00
14818;BME280;7500;57.698;11.986;2022-07-23T00:38:28;101475.66;;;19.13;100.00
14818;BME280;7500;57.698;11.986;2022-07-23T00:40:54;101465.53;;;19.05;100.00
14818;BME280;7500;57.698;11.986;2022-07-23T00:43:21;101464.91;;;19.02;100.00
14818;BME280;7500;57.698;11.986;2022-07-23T00:45:49;101462.72;;;19.07;100.00
14818;BME280;7500;57.698;11.986;2022-07-23T00:48:16;101464.00;;;19.14;100.00
14818;BME280;7500;57.698;11.986;2022-07-23T00:50:44;101467.84;;;19.10;100.00
14818;BME280;7500;57.698;11.986;2022-07-23T00:53:12;101465.75;;;19.02;100.00
14818;BME280;7500;57.698;11.986;2022-07-23T00:55:39;101460.56;;;18.88;100.00
14818;BME280;7500;57.698;11.986;2022-07-23T00:58:06;101462.00;;;18.81;100.00
14818;BME280;7500;57.698;11.986;2022-07-23T01:00:35;101444.25;;;18.80;100.00
14818;BME280;7500;57.698;11.986;2022-07-23T01:03:01;101447.53;;;18.84;100.00
14818;BME280;7500;57.698;11.986;2022-07-23T01:05:28;101451.78;;;18.86;100.00
14818;BME280;7500;57.698;11.986;2022-07-23T01:07:56;101450.66;;;18.78;100.00
14818;BME280;7500;57.698;11.986;2022-07-23T01:10:24;101465.00;;;18.77;100.00
14818;BME280;7500;57.698;11.986;2022-07-23T01:13:01;101467.34;;;18.81;100.00
14818;BME280;7500;57.698;11.986;2022-07-23T01:15:29;101465.97;;;18.76;100.00
14818;BME280;7500;57.698;11.986;2022-07-23T01:17:56;101466.94;;;18.75;100.00
14818;BME280;7500;57.698;11.986;2022-07-23T01:20:23;101470.56;;;18.74;100.00
14818;BME280;7500;57.698;11.986;2022-07-23T01:22:52;101469.84;;;18.72;100.00
14818;BME280;7500;57.698;11.986;2022-07-23T01:25:19;101464.97;;;18.66;100.00
14818;BME280;7500;57.698;11.986;2022-07-23T01:27:47;101473.19;;;18.63;100.00
14818;BME280;7500;57.698;11.986;2022-07-23T01:30:14;101410.81;;;18.26;100.00
14818;BME280;7500;57.698;11.986;2022-07-23T01:32:41;101443.91;;;18.49;100.00
14818;BME280;7500;57.698;11.986;2022-07-23T01:35:08;101467.72;;;18.64;100.00
14818;BME280;7500;57.698;11.986;2022-07-23T01:37:36;101473.38;;;18.72;100.00
14818;BME280;7500;57.698;11.986;2022-07-23T01:40:06;101474.97;;;18.75;100.00
14818;BME280;7500;57.698;11.986;2022-07-23T01:42:33;101475.69;;;18.77;100.00
14818;BME280;7500;57.698;11.986;2022-07-23T01:45:02;101480.09;;;18.78;100.00
14818;BME280;7500;57.698;11.986;2022-07-23T01:47:29;101476.34;;;18.80;100.00
14818;BME280;7500;57.698;11.986;2022-07-23T01:49:56;101481.94;;;18.77;100.00
14818;BME280;7500;57.698;11.986;2022-07-23T01:52:23;101471.44;;;18.74;100.00
14818;BME280;7500;57.698;11.986;2022-07-23T01:54:50;101477.19;;;18.81;100.00
14818;BME280;7500;57.698;11.986;2022-07-23T01:57:18;101468.19;;;18.82;100.00
14818;BME280;7500;57.698;11.986;2022-07-23T01:59:45;101469.00;;;18.71;100.00
14818;BME280;7500;57.698;11.986;2022-07-23T02:02:11;101470.31;;;18.66;100.00
14818;BME280;7500;57.698;11.986;2022-07-23T02:04:38;101468.59;;;18.65;100.00
14818;BME280;7500;57.698;11.986;2022-07-23T02:07:05;101473.59;;;18.69;100.00
14818;BME280;7500;57.698;11.986;2022-07-23T02:09:32;101478.56;;;18.63;100.00
14818;BME280;7500;57.698;11.986;2022-07-23T02:12:00;101466.38;;;18.59;100.00
14818;BME280;7500;57.698;11.986;2022-07-23T02:14:28;101461.22;;;18.56;100.00
14818;BME280;7500;57.698;11.986;2022-07-23T02:16:55;101466.88;;;18.64;100.00
14818;BME280;7500;57.698;11.986;2022-07-23T02:19:22;101465.63;;;18.57;100.00
14818;BME280;7500;57.698;11.986;2022-07-23T02:21:49;101462.41;;;18.52;100.00
14818;BME280;7500;57.698;11.986;2022-07-23T02:24:16;101461.44;;;18.53;100.00
14818;BME280;7500;57.698;11.986;2022-07-23T02:26:43;101470.22;;;18.55;100.00
14818;BME280;7500;57.698;11.986;2022-07-23T02:29:10;101450.34;;;18.46;100.00
14818;BME280;7500;57.698;11.986;2022-07-23T02:31:38;101479.38;;;18.63;100.00
14818;BME280;7500;57.698;11.986;2022-07-23T02:34:06;101482.94;;;18.64;100.00
14818;BME280;7500;57.698;11.986;2022-07-23T02:36:32;101471.28;;;18.65;100.00
14818;BME280;7500;57.698;11.986;2022-07-23T02:38:59;101477.06;;;18.59;100.00
14818;BME280;7500;57.698;11.986;2022-07-23T02:41:26;101480.69;;;18.58;100.00
14818;BME280;7500;57.698;11.986;2022-07-23T02:43:53;101487.00;;;18.57;100.00
14818;BME280;7500;57.698;11.986;2022-07-23T02:46:19;101478.03;;;18.58;100.00
14818;BME280;7500;57.698;11.986;2022-07-23T02:48:48;101473.34;;;18.49;100.00
14818;BME280;7500;57.698;11.986;2022-07-23T02:51:14;101474.94;;;18.51;100.00
14818;BME280;7500;57.698;11.986;2022-07-23T02:53:41;101483.28;;;18.47;100.00
14818;BME280;7500;57.698;11.986;2022-07-23T02:56:08;101479.88;;;18.45;100.00
14818;BME280;7500;57.698;11.986;2022-07-23T02:58:35;101475.91;;;18.38;100.00
14818;BME280;7500;57.698;11.986;2022-07-23T03:01:02;101479.38;;;18.27;100.00
14818;BME280;7500;57.698;11.986;2022-07-23T03:03:29;101479.69;;;18.23;100.00
14818;BME280;7500;57.698;11.986;2022-07-23T03:05:57;101482.03;;;18.15;100.00
14818;BME280;7500;57.698;11.986;2022-07-23T03:08:24;101494.03;;;18.10;100.00
14818;BME280;7500;57.698;11.986;2022-07-23T03:10:50;101491.00;;;18.14;100.00
14818;BME280;7500;57.698;11.986;2022-07-23T03:13:17;101491.88;;;18.15;100.00
14818;BME280;7500;57.698;11.986;2022-07-23T03:15:44;101496.13;;;18.17;100.00
14818;BME280;7500;57.698;11.986;2022-07-23T03:18:11;101492.13;;;18.24;100.00
14818;BME280;7500;57.698;11.986;2022-07-23T03:20:38;101497.63;;;18.21;100.00
14818;BME280;7500;57.698;11.986;2022-07-23T03:23:06;101499.03;;;18.26;100.00
14818;BME280;7500;57.698;11.986;2022-07-23T03:25:33;101493.69;;;18.26;100.00
14818;BME280;7500;57.698;11.986;2022-07-23T03:27:59;101498.63;;;18.32;100.00
14818;BME280;7500;57.698;11.986;2022-07-23T03:30:26;101499.91;;;18.27;100.00
14818;BME280;7500;57.698;11.986;2022-07-23T03:32:53;101498.06;;;18.15;100.00
14818;BME280;7500;57.698;11.986;2022-07-23T03:35:20;101504.59;;;18.11;100.00
14818;BME280;7500;57.698;11.986;2022-07-23T03:37:47;101502.13;;;18.08;100.00
14818;BME280;7500;57.698;11.986;2022-07-23T03:40:15;101503.53;;;18.01;100.00
14818;BME280;7500;57.698;11.986;2022-07-23T03:42:42;101493.56;;;18.03;100.00
14818;BME280;7500;57.698;11.986;2022-07-23T03:45:09;101490.06;;;18.03;100.00
14818;BME280;7500;57.698;11.986;2022-07-23T03:47:36;101496.03;;;17.94;100.00
14818;BME280;7500;57.698;11.986;2022-07-23T03:50:05;101500.34;;;17.96;100.00
14818;BME280;7500;57.698;11.986;2022-07-23T03:52:32;101486.09;;;18.08;100.00
14818;BME280;7500;57.698;11.986;2022-07-23T03:54:59;101489.09;;;18.16;100.00
14818;BME280;7500;57.698;11.986;2022-07-23T03:57:27;101488.66;;;18.10;100.00
14818;BME280;7500;57.698;11.986;2022-07-23T03:59:54;101488.22;;;18.03;100.00
14818;BME280;7500;57.698;11.986;2022-07-23T04:02:20;101485.81;;;18.00;100.00
14818;BME280;7500;57.698;11.986;2022-07-23T04:04:47;101486.75;;;17.99;100.00
14818;BME280;7500;57.698;11.986;2022-07-23T04:07:14;101480.66;;;17.97;100.00
14818;BME280;7500;57.698;11.986;2022-07-23T04:09:42;101475.19;;;17.99;100.00
14818;BME280;7500;57.698;11.986;2022-07-23T04:12:09;101472.66;;;17.97;100.00
14818;BME280;7500;57.698;11.986;2022-07-23T04:14:38;101479.69;;;17.98;100.00
14818;BME280;7500;57.698;11.986;2022-07-23T04:17:05;101480.75;;;17.96;100.00
14818;BME280;7500;57.698;11.986;2022-07-23T04:19:31;101479.59;;;18.00;100.00
14818;BME280;7500;57.698;11.986;2022-07-23T04:21:58;101481.16;;;18.02;100.00
14818;BME280;7500;57.698;11.986;2022-07-23T04:24:25;101482.88;;;18.03;100.00
14818;BME280;7500;57.698;11.986;2022-07-23T04:26:52;101480.88;;;18.07;100.00
14818;BME280;7500;57.698;11.986;2022-07-23T04:29:19;101474.44;;;18.09;100.00
14818;BME280;7500;57.698;11.986;2022-07-23T04:31:47;101467.50;;;18.07;100.00
14818;BME280;7500;57.698;11.986;2022-07-23T04:34:14;101471.13;;;18.06;100.00
14818;BME280;7500;57.698;11.986;2022-07-23T04:36:41;101467.38;;;18.08;100.00
14818;BME280;7500;57.698;11.986;2022-07-23T04:39:07;101472.41;;;18.13;100.00
14818;BME280;7500;57.698;11.986;2022-07-23T04:41:34;101466.13;;;18.14;100.00
14818;BME280;7500;57.698;11.986;2022-07-23T04:44:02;101472.63;;;18.10;100.00
14818;BME280;7500;57.698;11.986;2022-07-23T04:46:29;101466.88;;;18.16;100.00
14818;BME280;7500;57.698;11.986;2022-07-23T04:48:57;101463.94;;;18.18;100.00
14818;BME280;7500;57.698;11.986;2022-07-23T04:51:24;101461.94;;;18.22;100.00
14818;BME280;7500;57.698;11.986;2022-07-23T04:53:51;101460.22;;;18.21;100.00
14818;BME280;7500;57.698;11.986;2022-07-23T04:56:18;101453.16;;;18.20;100.00
14818;BME280;7500;57.698;11.986;2022-07-23T04:58:44;101457.88;;;18.17;100.00
14818;BME280;7500;57.698;11.986;2022-07-23T05:01:11;101455.28;;;18.15;100.00
14818;BME280;7500;57.698;11.986;2022-07-23T05:03:38;101448.16;;;18.16;100.00
14818;BME280;7500;57.698;11.986;2022-07-23T05:06:06;101444.41;;;18.18;100.00
14818;BME280;7500;57.698;11.986;2022-07-23T05:08:33;101444.00;;;18.24;100.00
14818;BME280;7500;57.698;11.986;2022-07-23T05:10:59;101444.81;;;18.24;100.00
14818;BME280;7500;57.698;11.986;2022-07-23T05:13:26;101441.72;;;18.18;100.00
14818;BME280;7500;57.698;11.986;2022-07-23T05:15:53;101431.03;;;18.18;100.00
14818;BME280;7500;57.698;11.986;2022-07-23T05:18:20;101431.56;;;18.23;100.00
14818;BME280;7500;57.698;11.986;2022-07-23T05:20:47;101428.97;;;18.21;100.00
14818;BME280;7500;57.698;11.986;2022-07-23T05:23:15;101441.09;;;18.27;100.00
14818;BME280;7500;57.698;11.986;2022-07-23T05:25:42;101437.88;;;18.34;100.00
14818;BME280;7500;57.698;11.986;2022-07-23T05:28:08;101439.97;;;18.42;100.00
14818;BME280;7500;57.698;11.986;2022-07-23T05:30:35;101446.06;;;18.44;100.00
14818;BME280;7500;57.698;11.986;2022-07-23T05:33:02;101448.97;;;18.41;100.00
14818;BME280;7500;57.698;11.986;2022-07-23T05:35:29;101451.84;;;18.38;100.00
14818;BME280;7500;57.698;11.986;2022-07-23T05:37:56;101447.47;;;18.37;100.00
14818;BME280;7500;57.698;11.986;2022-07-23T05:40:24;101447.19;;;18.29;100.00
14818;BME280;7500;57.698;11.986;2022-07-23T05:42:51;101450.63;;;18.31;100.00
14818;BME280;7500;57.698;11.986;2022-07-23T05:45:18;101456.06;;;18.29;100.00
14818;BME280;7500;57.698;11.986;2022-07-23T05:47:46;101456.94;;;18.30;100.00
14818;BME280;7500;57.698;11.986;2022-07-23T05:50:14;101444.31;;;18.32;100.00
14818;BME280;7500;57.698;11.986;2022-07-23T05:52:41;101448.44;;;18.23;100.00
14818;BME280;7500;57.698;11.986;2022-07-23T05:55:10;101457.34;;;18.24;100.00
14818;BME280;7500;57.698;11.986;2022-07-23T05:57:39;101453.16;;;18.32;100.00
14818;BME280;7500;57.698;11.986;2022-07-23T06:00:08;101462.69;;;18.36;100.00
14818;BME280;7500;57.698;11.986;2022-07-23T06:02:37;101463.22;;;18.29;100.00
14818;BME280;7500;57.698;11.986;2022-07-23T06:05:05;101454.00;;;18.20;100.00
14818;BME280;7500;57.698;11.986;2022-07-23T06:07:33;101455.63;;;18.23;100.00
14818;BME280;7500;57.698;11.986;2022-07-23T06:10:00;101466.31;;;18.23;100.00
14818;BME280;7500;57.698;11.986;2022-07-23T06:12:26;101461.41;;;18.17;100.00
14818;BME280;7500;57.698;11.986;2022-07-23T06:14:55;101454.69;;;18.12;100.00
14818;BME280;7500;57.698;11.986;2022-07-23T06:17:22;101459.91;;;18.25;100.00
14818;BME280;7500;57.698;11.986;2022-07-23T06:19:48;101385.88;;;17.90;100.00
14818;BME280;7500;57.698;11.986;2022-07-23T06:22:15;101446.97;;;18.32;100.00
14818;BME280;7500;57.698;11.986;2022-07-23T06:24:42;101452.50;;;18.41;100.00
14818;BME280;7500;57.698;11.986;2022-07-23T06:27:09;101456.53;;;18.47;100.00
14818;BME280;7500;57.698;11.986;2022-07-23T06:29:35;101452.50;;;18.41;100.00
14818;BME280;7500;57.698;11.986;2022-07-23T06:32:06;101453.78;;;18.48;100.00
14818;BME280;7500;57.698;11.986;2022-07-23T06:34:32;101460.50;;;18.54;100.00
14818;BME280;7500;57.698;11.986;2022-07-23T06:36:59;101448.47;;;18.59;100.00
14818;BME280;7500;57.698;11.986;2022-07-23T06:39:26;101453.81;;;18.59;100.00
14818;BME280;7500;57.698;11.986;2022-07-23T06:41:53;101452.06;;;18.47;100.00
14818;BME280;7500;57.698;11.986;2022-07-23T06:44:20;101449.50;;;18.46;100.00
14818;BME280;7500;57.698;11.986;2022-07-23T06:46:47;101442.94;;;18.50;100.00
14818;BME280;7500;57.698;11.986;2022-07-23T06:49:15;101442.38;;;18.57;100.00
14818;BME280;7500;57.698;11.986;2022-07-23T06:51:42;101439.94;;;18.54;100.00
14818;BME280;7500;57.698;11.986;2022-07-23T06:54:08;101448.16;;;18.64;100.00
14818;BME280;7500;57.698;11.986;2022-07-23T06:56:35;101443.66;;;18.64;100.00
14818;BME280;7500;57.698;11.986;2022-07-23T06:59:02;101444.75;;;18.62;100.00
14818;BME280;7500;57.698;11.986;2022-07-23T07:01:29;101453.00;;;18.59;100.00
14818;BME280;7500;57.698;11.986;2022-07-23T07:03:56;101453.31;;;18.54;100.00
14818;BME280;7500;57.698;11.986;2022-07-23T07:06:24;101459.53;;;18.55;100.00
14818;BME280;7500;57.698;11.986;2022-07-23T07:08:51;101456.09;;;18.53;100.00
14818;BME280;7500;57.698;11.986;2022-07-23T07:11:18;101460.09;;;18.47;100.00
14818;BME280;7500;57.698;11.986;2022-07-23T07:13:45;101460.41;;;18.43;100.00
14818;BME280;7500;57.698;11.986;2022-07-23T07:16:11;101461.72;;;18.37;100.00
14818;BME280;7500;57.698;11.986;2022-07-23T07:18:38;101465.75;;;18.43;100.00
14818;BME280;7500;57.698;11.986;2022-07-23T07:21:05;101464.03;;;18.42;100.00
14818;BME280;7500;57.698;11.986;2022-07-23T07:23:33;101477.13;;;18.34;100.00
14818;BME280;7500;57.698;11.986;2022-07-23T07:26:00;101464.28;;;18.26;100.00
14818;BME280;7500;57.698;11.986;2022-07-23T07:28:27;101467.69;;;18.16;100.00
14818;BME280;7500;57.698;11.986;2022-07-23T07:30:54;101475.50;;;18.19;100.00
14818;BME280;7500;57.698;11.986;2022-07-23T07:33:21;101470.91;;;18.33;100.00
14818;BME280;7500;57.698;11.986;2022-07-23T07:35:48;101472.72;;;18.45;100.00
14818;BME280;7500;57.698;11.986;2022-07-23T07:38:14;101463.72;;;18.46;100.00
14818;BME280;7500;57.698;11.986;2022-07-23T07:40:43;101468.94;;;18.48;100.00
14818;BME280;7500;57.698;11.986;2022-07-23T07:43:09;101463.69;;;18.59;100.00
14818;BME280;7500;57.698;11.986;2022-07-23T07:45:36;101468.59;;;18.65;100.00
14818;BME280;7500;57.698;11.986;2022-07-23T07:48:04;101461.41;;;18.65;100.00
14818;BME280;7500;57.698;11.986;2022-07-23T07:50:31;101466.41;;;18.70;100.00
14818;BME280;7500;57.698;11.986;2022-07-23T07:52:57;101472.16;;;18.53;100.00
14818;BME280;7500;57.698;11.986;2022-07-23T07:55:24;101466.28;;;18.48;100.00
14818;BME280;7500;57.698;11.986;2022-07-23T07:57:53;101470.44;;;18.52;100.00
14818;BME280;7500;57.698;11.986;2022-07-23T08:00:20;101484.34;;;18.57;100.00
14818;BME280;7500;57.698;11.986;2022-07-23T08:02:49;101489.25;;;18.63;100.00
14818;BME280;7500;57.698;11.986;2022-07-23T08:05:19;101491.94;;;18.63;100.00
14818;BME280;7500;57.698;11.986;2022-07-23T08:07:46;101486.06;;;18.58;100.00
14818;BME280;7500;57.698;11.986;2022-07-23T08:10:13;101492.44;;;18.68;100.00
14818;BME280;7500;57.698;11.986;2022-07-23T08:12:41;101486.22;;;18.67;100.00
14818;BME280;7500;57.698;11.986;2022-07-23T08:15:12;101490.53;;;18.57;100.00
14818;BME280;7500;57.698;11.986;2022-07-23T08:17:40;101499.59;;;18.67;100.00
14818;BME280;7500;57.698;11.986;2022-07-23T08:20:08;101496.94;;;18.67;100.00
14818;BME280;7500;57.698;11.986;2022-07-23T08:22:45;101503.81;;;18.59;100.00
14818;BME280;7500;57.698;11.986;2022-07-23T08:25:13;101508.09;;;18.49;100.00
14818;BME280;7500;57.698;11.986;2022-07-23T08:27:40;101505.97;;;18.54;100.00
14818;BME280;7500;57.698;11.986;2022-07-23T08:30:08;101506.13;;;18.63;100.00
14818;BME280;7500;57.698;11.986;2022-07-23T08:32:52;101505.19;;;18.64;100.00
14818;BME280;7500;57.698;11.986;2022-07-23T08:35:24;101510.84;;;18.72;100.00
14818;BME280;7500;57.698;11.986;2022-07-23T08:37:51;101507.72;;;18.78;100.00
14818;BME280;7500;57.698;11.986;2022-07-23T08:40:19;101508.34;;;18.82;100.00
14818;BME280;7500;57.698;11.986;2022-07-23T08:42:48;101512.78;;;18.94;100.00
14818;BME280;7500;57.698;11.986;2022-07-23T08:45:17;101521.22;;;19.00;100.00
14818;BME280;7500;57.698;11.986;2022-07-23T08:47:51;101516.84;;;18.99;100.00
14818;BME280;7500;57.698;11.986;2022-07-23T08:50:18;101510.50;;;19.00;100.00
14818;BME280;7500;57.698;11.986;2022-07-23T08:52:46;101507.75;;;19.02;100.00
14818;BME280;7500;57.698;11.986;2022-07-23T08:55:16;101503.34;;;19.01;100.00
14818;BME280;7500;57.698;11.986;2022-07-23T08:57:43;101502.31;;;18.91;100.00
14818;BME280;7500;57.698;11.986;2022-07-23T09:00:11;101505.81;;;18.91;100.00
14818;BME280;7500;57.698;11.986;2022-07-23T09:02:39;101499.19;;;18.97;100.00
14818;BME280;7500;57.698;11.986;2022-07-23T09:05:09;101497.25;;;18.99;100.00
14818;BME280;7500;57.698;11.986;2022-07-23T09:07:37;101495.47;;;18.87;100.00
14818;BME280;7500;57.698;11.986;2022-07-23T09:10:07;101481.06;;;18.77;100.00
14818;BME280;7500;57.698;11.986;2022-07-23T09:12:34;101488.06;;;18.90;100.00
14818;BME280;7500;57.698;11.986;2022-07-23T09:15:06;101489.97;;;19.01;100.00
14818;BME280;7500;57.698;11.986;2022-07-23T09:17:38;101499.94;;;18.99;100.00
14818;BME280;7500;57.698;11.986;2022-07-23T09:20:11;101501.00;;;18.96;100.00
14818;BME280;7500;57.698;11.986;2022-07-23T09:22:38;101499.00;;;18.87;100.00
14818;BME280;7500;57.698;11.986;2022-07-23T09:25:09;101498.38;;;18.84;100.00
14818;BME280;7500;57.698;11.986;2022-07-23T09:27:48;101499.00;;;18.87;100.00
14818;BME280;7500;57.698;11.986;2022-07-23T09:30:15;101496.31;;;18.87;100.00
14818;BME280;7500;57.698;11.986;2022-07-23T09:32:42;101495.03;;;18.93;100.00
14818;BME280;7500;57.698;11.986;2022-07-23T09:35:10;101507.31;;;18.95;100.00
14818;BME280;7500;57.698;11.986;2022-07-23T09:37:37;101505.59;;;18.94;100.00
14818;BME280;7500;57.698;11.986;2022-07-23T09:40:06;101516.22;;;18.96;100.00
14818;BME280;7500;57.698;11.986;2022-07-23T09:42:34;101514.06;;;18.88;100.00
14818;BME280;7500;57.698;11.986;2022-07-23T09:45:01;101510.63;;;18.75;100.00
14818;BME280;7500;57.698;11.986;2022-07-23T09:47:30;101436.06;;;18.35;100.00
14818;BME280;7500;57.698;11.986;2022-07-23T09:49:59;101521.78;;;18.93;100.00
14818;BME280;7500;57.698;11.986;2022-07-23T09:52:29;101514.00;;;18.90;100.00
14818;BME280;7500;57.698;11.986;2022-07-23T09:55:00;101515.16;;;18.86;100.00
14818;BME280;7500;57.698;11.986;2022-07-23T09:57:28;101518.47;;;18.89;100.00
14818;BME280;7500;57.698;11.986;2022-07-23T09:59:58;101514.72;;;18.92;100.00
14818;BME280;7500;57.698;11.986;2022-07-23T10:02:27;101528.09;;;18.92;100.00
14818;BME280;7500;57.698;11.986;2022-07-23T10:04:54;101522.00;;;18.90;100.00
14818;BME280;7500;57.698;11.986;2022-07-23T10:07:22;101524.25;;;18.96;100.00
14818;BME280;7500;57.698;11.986;2022-07-23T10:09:51;101535.03;;;18.94;100.00
14818;BME280;7500;57.698;11.986;2022-07-23T10:12:19;101531.00;;;18.89;100.00
14818;BME280;7500;57.698;11.986;2022-07-23T10:15:07;101529.16;;;19.02;100.00
14818;BME280;7500;57.698;11.986;2022-07-23T10:17:35;101537.19;;;19.02;100.00
14818;BME280;7500;57.698;11.986;2022-07-23T10:20:03;101541.78;;;19.00;100.00
14818;BME280;7500;57.698;11.986;2022-07-23T10:22:35;101544.97;;;19.05;100.00
14818;BME280;7500;57.698;11.986;2022-07-23T10:25:14;101541.78;;;19.00;100.00
14818;BME280;7500;57.698;11.986;2022-07-23T10:27:56;101540.69;;;19.02;100.00
14818;BME280;7500;57.698;11.986;2022-07-23T10:30:31;101536.47;;;19.11;100.00
14818;BME280;7500;57.698;11.986;2022-07-23T10:33:15;101550.34;;;19.28;100.00
14818;BME280;7500;57.698;11.986;2022-07-23T10:35:47;101544.75;;;19.20;100.00
14818;BME280;7500;57.698;11.986;2022-07-23T10:38:21;101547.75;;;19.16;100.00
14818;BME280;7500;57.698;11.986;2022-07-23T10:40:56;101541.41;;;19.17;100.00
14818;BME280;7500;57.698;11.986;2022-07-23T10:43:23;101535.31;;;19.15;100.00
14818;BME280;7500;57.698;11.986;2022-07-23T10:45:50;101534.25;;;19.17;100.00
14818;BME280;7500;57.698;11.986;2022-07-23T10:48:19;101531.97;;;19.24;100.00
14818;BME280;7500;57.698;11.986;2022-07-23T10:51:07;101534.75;;;19.22;100.00
14818;BME280;7500;57.698;11.986;2022-07-23T10:53:54;101536.34;;;19.25;100.00
14818;BME280;7500;57.698;11.986;2022-07-23T10:57:05;101528.78;;;19.19;100.00
14818;BME280;7500;57.698;11.986;2022-07-23T11:02:34;101523.25;;;19.33;100.00
14818;BME280;7500;57.698;11.986;2022-07-23T11:05:04;101528.72;;;19.31;100.00
14818;BME280;7500;57.698;11.986;2022-07-23T11:07:32;101531.44;;;19.42;100.00
14818;BME280;7500;57.698;11.986;2022-07-23T11:09:59;101535.16;;;19.52;100.00
14818;BME280;7500;57.698;11.986;2022-07-23T11:12:35;101533.81;;;19.57;100.00
14818;BME280;7500;57.698;11.986;2022-07-23T11:15:05;101527.34;;;19.60;100.00
14818;BME280;7500;57.698;11.986;2022-07-23T11:17:34;101521.69;;;19.64;100.00
14818;BME280;7500;57.698;11.986;2022-07-23T11:20:17;101521.91;;;19.61;100.00
14818;BME280;7500;57.698;11.986;2022-07-23T11:22:51;101531.00;;;19.59;100.00
14818;BME280;7500;57.698;11.986;2022-07-23T11:25:33;101515.91;;;19.58;100.00
14818;BME280;7500;57.698;11.986;2022-07-23T11:28:10;101524.44;;;19.63;100.00
14818;BME280;7500;57.698;11.986;2022-07-23T11:30:40;101526.53;;;19.59;100.00
14818;BME280;7500;57.698;11.986;2022-07-23T11:33:21;101526.53;;;19.59;100.00
14818;BME280;7500;57.698;11.986;2022-07-23T11:36:06;101520.66;;;19.54;100.00
14818;BME280;7500;57.698;11.986;2022-07-23T11:38:33;101523.09;;;19.57;100.00
14818;BME280;7500;57.698;11.986;2022-07-23T11:41:00;101529.31;;;19.58;100.00
14818;BME280;7500;57.698;11.986;2022-07-23T11:43:28;101532.13;;;19.56;100.00
14818;BME280;7500;57.698;11.986;2022-07-23T11:45:57;101533.91;;;19.56;100.00
14818;BME280;7500;57.698;11.986;2022-07-23T11:48:26;101529.94;;;19.61;100.00
14818;BME280;7500;57.698;11.986;2022-07-23T11:50:55;101529.59;;;19.66;100.00
14818;BME280;7500;57.698;11.986;2022-07-23T11:53:23;101534.59;;;19.70;100.00
14818;BME280;7500;57.698;11.986;2022-07-23T11:55:50;101538.25;;;19.69;100.00
14818;BME280;7500;57.698;11.986;2022-07-23T11:58:17;101540.19;;;19.67;100.00
14818;BME280;7500;57.698;11.986;2022-07-23T12:00:45;101540.53;;;19.63;100.00
14818;BME280;7500;57.698;11.986;2022-07-23T12:03:12;101541.72;;;19.59;100.00
14818;BME280;7500;57.698;11.986;2022-07-23T12:05:39;101509.06;;;19.43;100.00
14818;BME280;7500;57.698;11.986;2022-07-23T12:08:07;101552.34;;;19.60;100.00
14818;BME280;7500;57.698;11.986;2022-07-23T12:10:36;101521.75;;;19.52;100.00
14818;BME280;7500;57.698;11.986;2022-07-23T12:13:04;101541.72;;;19.59;100.00
14818;BME280;7500;57.698;11.986;2022-07-23T12:15:33;101540.66;;;19.61;100.00
14818;BME280;7500;57.698;11.986;2022-07-23T12:18:05;101533.69;;;19.59;100.00
14818;BME280;7500;57.698;11.986;2022-07-23T12:20:34;101531.28;;;19.67;100.00
14818;BME280;7500;57.698;11.986;2022-07-23T12:23:03;101539.09;;;19.70;100.00
14818;BME280;7500;57.698;11.986;2022-07-23T12:25:32;101533.97;;;19.67;100.00
14818;BME280;7500;57.698;11.986;2022-07-23T12:28:02;101536.06;;;19.74;100.00
14818;BME280;7500;57.698;11.986;2022-07-23T12:30:33;101529.72;;;19.75;100.00
14818;BME280;7500;57.698;11.986;2022-07-23T12:33:00;101529.72;;;19.75;100.00
14818;BME280;7500;57.698;11.986;2022-07-23T12:35:34;101544.59;;;19.79;100.00
14818;BME280;7500;57.698;11.986;2022-07-23T12:38:04;101535.94;;;19.76;100.00
14818;BME280;7500;57.698;11.986;2022-07-23T12:40:32;101544.03;;;19.87;100.00
14818;BME280;7500;57.698;11.986;2022-07-23T12:43:03;101534.88;;;19.89;100.00
14818;BME280;7500;57.698;11.986;2022-07-23T12:45:43;101537.69;;;19.88;100.00
14818;BME280;7500;57.698;11.986;2022-07-23T12:48:19;101540.00;;;19.92;100.00
14818;BME280;7500;57.698;11.986;2022-07-23T12:50:55;101537.34;;;19.92;100.00